createdAt,value
2023-02-19T00:01:15.711Z,14.30
2023-02-19T00:03:43.799Z,14.30
2023-02-19T00:06:11.528Z,14.30
2023-02-19T00:08:39.798Z,14.30
2023-02-19T00:11:09.667Z,14.30
2023-02-19T00:13:42.338Z,14.30
2023-02-19T00:16:11.830Z,14.30
2023-02-19T00:18:40.402Z,14.30
2023-02-19T00:21:07.431Z,14.30
2023-02-19T00:23:34.929Z,14.30
2023-02-19T00:26:17.738Z,14.30
2023-02-19T00:28:47.818Z,14.30
2023-02-19T00:31:18.339Z,14.30
2023-02-19T00:33:47.734Z,14.30
2023-02-19T00:36:16.371Z,14.20
2023-02-19T00:38:44.338Z,14.20
2023-02-19T00:41:21.735Z,14.20
2023-02-19T00:44:00.000Z,14.20
2023-02-19T00:46:32.243Z,14.30
2023-02-19T00:48:59.504Z,14.30
2023-02-19T00:51:29.337Z,14.30
2023-02-19T00:53:56.452Z,14.40
2023-02-19T00:56:23.270Z,14.40
2023-02-19T00:58:49.999Z,14.30
2023-02-19T01:01:17.368Z,14.30
2023-02-19T01:03:44.132Z,14.30
2023-02-19T01:06:13.104Z,14.40
2023-02-19T01:08:42.189Z,14.40
2023-02-19T01:11:10.573Z,14.40
2023-02-19T01:13:37.890Z,14.40
2023-02-19T01:16:19.872Z,14.40
2023-02-19T01:18:47.811Z,14.40
2023-02-19T01:21:18.585Z,14.40
2023-02-19T01:23:45.723Z,14.40
2023-02-19T01:26:15.271Z,14.40
2023-02-19T01:28:42.703Z,14.40
2023-02-19T01:31:14.455Z,14.40
2023-02-19T01:33:48.506Z,14.40
2023-02-19T01:36:15.720Z,14.40
2023-02-19T01:38:42.731Z,14.40
2023-02-19T01:41:16.476Z,14.30
2023-02-19T01:44:01.925Z,14.30
2023-02-19T01:46:33.796Z,14.30
2023-02-19T01:49:17.967Z,14.30
2023-02-19T01:51:48.601Z,14.30
2023-02-19T01:54:19.808Z,14.30
2023-02-19T01:56:48.900Z,14.40
2023-02-19T01:59:17.061Z,14.40
2023-02-19T02:01:43.869Z,14.40
2023-02-19T02:04:13.422Z,14.40
2023-02-19T02:06:52.121Z,14.40
2023-02-19T02:09:38.708Z,14.40
2023-02-19T02:12:05.628Z,14.40
2023-02-19T02:14:37.328Z,14.40
2023-02-19T02:17:46.079Z,14.30
2023-02-19T02:20:15.749Z,14.30
2023-02-19T02:22:51.120Z,14.20
2023-02-19T02:25:23.698Z,14.20
2023-02-19T02:28:27.320Z,14.30
2023-02-19T02:30:59.939Z,14.30
2023-02-19T02:33:43.047Z,14.30
2023-02-19T02:36:21.717Z,14.40
2023-02-19T02:38:49.268Z,14.30
2023-02-19T02:41:16.559Z,14.30
2023-02-19T02:43:43.217Z,14.30
2023-02-19T02:46:12.525Z,14.30
2023-02-19T02:48:46.276Z,14.30
2023-02-19T02:51:32.011Z,14.30
2023-02-19T02:54:32.641Z,14.30
2023-02-19T02:56:59.822Z,14.40
2023-02-19T02:59:31.763Z,14.40
2023-02-19T03:02:11.876Z,14.40
2023-02-19T03:05:25.145Z,14.40
2023-02-19T03:08:17.551Z,14.40
2023-02-19T03:10:56.448Z,14.40
2023-02-19T03:13:49.278Z,14.40
2023-02-19T03:16:42.505Z,14.40
2023-02-19T03:19:20.370Z,14.40
2023-02-19T03:21:54.997Z,14.30
2023-02-19T03:24:46.119Z,14.40
2023-02-19T03:27:15.374Z,14.40
2023-02-19T03:29:44.711Z,14.30
2023-02-19T03:32:23.718Z,14.30
2023-02-19T03:34:58.294Z,14.30
2023-02-19T03:37:57.835Z,14.30
2023-02-19T03:40:28.211Z,14.30
2023-02-19T03:43:19.771Z,14.40
2023-02-19T03:45:57.056Z,14.30
2023-02-19T03:48:33.864Z,14.20
2023-02-19T03:51:26.960Z,14.20
2023-02-19T03:54:15.201Z,14.10
2023-02-19T03:57:17.518Z,14.10
2023-02-19T03:59:55.608Z,14.10
2023-02-19T04:02:48.496Z,14.20
2023-02-19T04:05:29.645Z,14.20
2023-02-19T04:08:01.454Z,14.20
2023-02-19T04:10:29.018Z,14.10
2023-02-19T04:13:00.848Z,14.10
2023-02-19T04:15:33.811Z,14.20
2023-02-19T04:18:05.930Z,14.20
2023-02-19T04:20:39.137Z,14.10
2023-02-19T04:23:06.454Z,14.10
2023-02-19T04:25:35.349Z,14.20
2023-02-19T04:28:03.319Z,14.20
2023-02-19T04:30:30.163Z,14.20
2023-02-19T04:32:56.866Z,14.20
2023-02-19T04:35:23.538Z,14.30
2023-02-19T04:37:50.159Z,14.30
2023-02-19T04:40:17.251Z,14.30
2023-02-19T04:42:43.987Z,14.30
2023-02-19T04:45:10.666Z,14.30
2023-02-19T04:47:37.437Z,14.30
2023-02-19T04:50:04.539Z,14.30
2023-02-19T04:52:31.253Z,14.30
2023-02-19T04:54:58.019Z,14.30
2023-02-19T04:57:24.774Z,14.30
2023-02-19T04:59:53.125Z,14.30
2023-02-19T05:02:19.916Z,14.30
2023-02-19T05:04:47.610Z,14.30
2023-02-19T05:07:14.305Z,14.30
2023-02-19T05:09:40.931Z,14.30
2023-02-19T05:12:07.590Z,14.30
2023-02-19T05:14:34.210Z,14.30
2023-02-19T05:17:00.964Z,14.30
2023-02-19T05:19:27.677Z,14.30
2023-02-19T05:21:54.357Z,14.30
2023-02-19T05:24:21.141Z,14.30
2023-02-19T05:26:48.674Z,14.40
2023-02-19T05:29:15.419Z,14.30
2023-02-19T05:31:42.487Z,14.40
2023-02-19T05:34:09.361Z,14.40
2023-02-19T05:36:37.198Z,14.40
2023-02-19T05:39:06.169Z,14.40
2023-02-19T05:41:34.013Z,14.40
2023-02-19T05:44:00.709Z,14.40
2023-02-19T05:46:29.977Z,14.40
2023-02-19T05:48:58.162Z,14.30
2023-02-19T05:51:26.519Z,14.30
2023-02-19T05:53:53.790Z,14.30
2023-02-19T05:56:26.270Z,14.30
2023-02-19T05:58:53.867Z,14.40
2023-02-19T06:01:22.619Z,14.50
2023-02-19T06:03:49.409Z,14.50
2023-02-19T06:06:18.047Z,14.60
2023-02-19T06:08:45.227Z,14.60
2023-02-19T06:11:12.336Z,14.70
2023-02-19T06:13:39.298Z,14.80
2023-02-19T06:16:07.682Z,14.90
2023-02-19T06:18:34.495Z,14.90
2023-02-19T06:21:06.207Z,14.90
2023-02-19T06:23:33.340Z,15.00
2023-02-19T06:26:16.184Z,15.00
2023-02-19T06:28:43.043Z,15.00
2023-02-19T06:31:11.379Z,15.10
2023-02-19T06:33:41.924Z,15.10
2023-02-19T06:36:15.044Z,15.20
2023-02-19T06:38:42.409Z,15.20
2023-02-19T06:41:10.438Z,15.30
2023-02-19T06:43:37.331Z,15.10
2023-02-19T06:46:06.155Z,15.10
2023-02-19T06:48:33.665Z,15.00
2023-02-19T06:51:00.568Z,15.00
2023-02-19T06:53:27.676Z,14.90
2023-02-19T06:56:01.492Z,14.90
2023-02-19T06:58:28.553Z,14.80
2023-02-19T07:00:56.622Z,14.80
2023-02-19T07:03:23.847Z,14.80
2023-02-19T07:05:50.579Z,14.80
2023-02-19T07:08:17.460Z,14.80
2023-02-19T07:10:45.522Z,14.80
2023-02-19T07:13:12.287Z,14.80
2023-02-19T07:15:38.998Z,14.80
2023-02-19T07:18:07.593Z,14.70
2023-02-19T07:20:35.291Z,14.70
2023-02-19T07:23:01.946Z,14.70
2023-02-19T07:25:28.677Z,14.70
2023-02-19T07:27:55.446Z,14.60
2023-02-19T07:30:22.198Z,14.70
2023-02-19T07:32:48.943Z,14.70
2023-02-19T07:35:15.744Z,14.70
2023-02-19T07:37:42.475Z,14.70
2023-02-19T07:40:09.391Z,14.70
2023-02-19T07:42:36.035Z,14.70
2023-02-19T07:45:02.770Z,14.70
2023-02-19T07:47:29.899Z,14.60
2023-02-19T07:49:56.600Z,14.60
2023-02-19T07:52:23.421Z,14.60
2023-02-19T07:54:50.299Z,14.50
2023-02-19T07:57:17.018Z,14.50
2023-02-19T07:59:43.691Z,14.50
2023-02-19T08:02:37.174Z,14.40
2023-02-19T08:05:05.621Z,14.30
2023-02-19T08:07:37.383Z,14.30
2023-02-19T08:10:23.801Z,14.30
2023-02-19T08:13:16.602Z,14.30
2023-02-19T08:15:43.626Z,14.20
2023-02-19T08:18:10.722Z,14.20
2023-02-19T08:20:37.558Z,14.20
2023-02-19T08:23:04.559Z,14.20
2023-02-19T08:25:31.621Z,14.10
2023-02-19T08:28:02.977Z,14.20
2023-02-19T08:30:31.387Z,14.20
2023-02-19T08:33:01.871Z,14.10
2023-02-19T08:35:29.041Z,14.10
2023-02-19T08:37:57.249Z,14.10
2023-02-19T08:40:24.654Z,14.10
2023-02-19T08:42:51.422Z,14.00
2023-02-19T08:45:19.107Z,14.00
2023-02-19T08:47:46.285Z,14.00
2023-02-19T08:50:13.117Z,13.90
2023-02-19T08:52:39.886Z,14.00
2023-02-19T08:55:06.991Z,13.90
2023-02-19T08:57:37.598Z,14.00
2023-02-19T09:00:05.485Z,14.00
2023-02-19T09:02:32.306Z,14.10
2023-02-19T09:05:00.276Z,14.10
2023-02-19T09:07:27.301Z,14.10
2023-02-19T09:09:54.098Z,14.10
2023-02-19T09:12:20.782Z,14.20
2023-02-19T09:14:47.745Z,14.20
2023-02-19T09:17:14.402Z,14.20
2023-02-19T09:19:41.047Z,14.20
2023-02-19T09:22:07.742Z,14.20
2023-02-19T09:24:34.526Z,14.20
2023-02-19T09:27:01.255Z,14.20
2023-02-19T09:29:28.844Z,14.20
2023-02-19T09:32:00.000Z,14.20
2023-02-19T09:34:28.557Z,14.30
2023-02-19T09:36:55.539Z,14.30
2023-02-19T09:39:22.326Z,14.30
2023-02-19T09:41:50.419Z,14.30
2023-02-19T09:44:24.900Z,14.30
2023-02-19T09:46:53.259Z,14.20
2023-02-19T09:49:33.703Z,14.30
2023-02-19T09:52:07.677Z,14.20
2023-02-19T09:54:37.259Z,14.10
2023-02-19T09:57:05.828Z,14.20
2023-02-19T09:59:46.651Z,14.10
2023-02-19T10:02:18.463Z,14.20
2023-02-19T10:04:47.043Z,14.20
2023-02-19T10:07:16.150Z,14.20
2023-02-19T10:09:48.371Z,14.10
2023-02-19T10:12:18.673Z,14.10
2023-02-19T10:14:49.884Z,14.20
2023-02-19T10:17:31.720Z,14.20
2023-02-19T10:19:58.580Z,14.10
2023-02-19T10:22:25.528Z,14.10
2023-02-19T10:24:56.625Z,14.10
2023-02-19T10:27:30.045Z,14.00
2023-02-19T10:29:58.859Z,14.00
2023-02-19T10:32:27.449Z,14.00
2023-02-19T10:35:15.534Z,14.00
2023-02-19T10:37:48.708Z,14.00
2023-02-19T10:40:29.047Z,14.00
2023-02-19T10:43:02.395Z,14.00
2023-02-19T10:45:39.330Z,14.00
2023-02-19T10:48:07.635Z,14.00
2023-02-19T10:50:39.282Z,14.00
2023-02-19T10:53:05.950Z,14.00
2023-02-19T10:55:37.843Z,14.00
2023-02-19T10:58:27.272Z,14.10
2023-02-19T11:01:20.263Z,14.10
2023-02-19T11:03:49.277Z,14.10
2023-02-19T11:06:18.520Z,14.00
2023-02-19T11:08:59.783Z,14.00
2023-02-19T11:11:36.930Z,14.00
2023-02-19T11:14:20.116Z,13.90
2023-02-19T11:16:50.086Z,13.90
2023-02-19T11:19:48.187Z,13.90
2023-02-19T11:22:37.461Z,13.90
2023-02-19T11:25:25.860Z,13.90
2023-02-19T11:28:20.514Z,13.90
2023-02-19T11:30:48.049Z,13.90
2023-02-19T11:33:19.831Z,13.90
2023-02-19T11:35:52.448Z,13.80
2023-02-19T11:38:19.648Z,13.80
2023-02-19T11:40:57.779Z,13.80
2023-02-19T11:43:53.293Z,13.80
2023-02-19T11:46:48.145Z,13.90
2023-02-19T11:49:24.642Z,13.90
2023-02-19T11:52:00.138Z,13.90
2023-02-19T11:54:41.890Z,13.90
2023-02-19T11:57:36.674Z,14.00
2023-02-19T12:00:39.325Z,14.10
2023-02-19T12:03:44.182Z,14.20
2023-02-19T12:06:23.939Z,14.20
2023-02-19T12:09:06.471Z,14.30
2023-02-19T12:12:03.546Z,14.40
2023-02-19T12:14:51.774Z,14.50
2023-02-19T12:17:41.435Z,14.60
2023-02-19T12:20:33.847Z,14.60
2023-02-19T12:23:32.346Z,14.70
2023-02-19T12:26:28.626Z,14.70
2023-02-19T12:29:32.652Z,14.70
2023-02-19T12:32:20.446Z,14.80
2023-02-19T12:35:08.945Z,14.80
2023-02-19T12:37:38.637Z,14.90
2023-02-19T12:40:20.470Z,14.90
2023-02-19T12:43:26.089Z,14.90
2023-02-19T12:46:20.606Z,15.00
2023-02-19T12:48:55.638Z,15.00
2023-02-19T12:51:33.028Z,15.00
2023-02-19T12:54:23.872Z,15.00
2023-02-19T12:57:21.599Z,15.00
2023-02-19T13:00:00.068Z,15.00
2023-02-19T13:02:46.186Z,15.10
2023-02-19T13:05:25.734Z,15.10
2023-02-19T13:08:25.217Z,15.10
2023-02-19T13:10:58.930Z,15.10
2023-02-19T13:13:35.603Z,15.10
2023-02-19T13:16:10.235Z,15.10
2023-02-19T13:18:46.820Z,15.20
2023-02-19T13:21:35.661Z,15.20
2023-02-19T13:24:08.712Z,15.20
2023-02-19T13:27:08.575Z,15.20
2023-02-19T13:29:51.340Z,15.20
2023-02-19T13:32:58.181Z,15.20
2023-02-19T13:35:43.529Z,15.20
2023-02-19T13:38:14.866Z,15.20
2023-02-19T13:40:52.417Z,15.20
2023-02-19T13:43:27.778Z,15.20
2023-02-19T13:46:07.779Z,15.20
2023-02-19T13:48:39.761Z,15.20
2023-02-19T13:51:24.642Z,15.20
2023-02-19T13:53:58.363Z,15.10
2023-02-19T13:56:34.126Z,15.10
2023-02-19T13:59:24.499Z,15.10
2023-02-19T14:01:54.326Z,15.10
2023-02-19T14:04:47.399Z,15.10
2023-02-19T14:07:13.997Z,15.00
2023-02-19T14:09:40.862Z,15.10
2023-02-19T14:12:07.483Z,15.10
2023-02-19T14:14:35.510Z,15.00
2023-02-19T14:17:17.629Z,15.00
2023-02-19T14:19:46.100Z,15.10
2023-02-19T14:22:47.801Z,15.00
2023-02-19T14:25:52.772Z,15.00
2023-02-19T14:28:35.518Z,15.00
2023-02-19T14:31:11.627Z,14.90
2023-02-19T14:33:43.709Z,14.90
2023-02-19T14:36:44.231Z,14.90
2023-02-19T14:39:13.504Z,14.90
2023-02-19T14:41:43.795Z,14.90
2023-02-19T14:44:48.779Z,14.80
2023-02-19T14:47:19.612Z,14.90
2023-02-19T14:49:49.103Z,14.90
2023-02-19T14:52:19.840Z,14.90
2023-02-19T14:54:53.972Z,14.80
2023-02-19T14:57:32.799Z,14.80
2023-02-19T15:00:01.768Z,14.80
2023-02-19T15:02:30.743Z,14.80
2023-02-19T15:04:58.043Z,14.80
2023-02-19T15:07:33.899Z,14.80
2023-02-19T15:10:05.406Z,14.70
2023-02-19T15:12:47.778Z,14.70
2023-02-19T15:15:28.177Z,14.70
2023-02-19T15:17:57.148Z,14.70
2023-02-19T15:20:27.864Z,14.70
2023-02-19T15:22:56.218Z,14.70
2023-02-19T15:25:26.990Z,14.60
2023-02-19T15:27:53.769Z,14.60
2023-02-19T15:30:29.484Z,14.60
2023-02-19T15:32:59.026Z,14.60
2023-02-19T15:35:27.872Z,14.60
2023-02-19T15:37:55.370Z,14.60
2023-02-19T15:40:28.361Z,14.60
2023-02-19T15:42:55.300Z,14.60
2023-02-19T15:45:44.823Z,14.60
2023-02-19T15:48:24.217Z,14.60
2023-02-19T15:51:04.865Z,14.50
2023-02-19T15:53:34.209Z,14.50
2023-02-19T15:56:14.787Z,14.40
2023-02-19T15:58:51.034Z,14.30
2023-02-19T16:01:25.156Z,14.00
2023-02-19T16:03:54.093Z,13.90
2023-02-19T16:06:22.101Z,13.80
2023-02-19T16:09:01.769Z,13.70
2023-02-19T16:11:47.482Z,13.60
2023-02-19T16:14:18.961Z,13.60
2023-02-19T16:16:47.972Z,13.60
2023-02-19T16:19:32.509Z,13.70
2023-02-19T16:22:00.619Z,13.70
2023-02-19T16:24:38.023Z,13.80
2023-02-19T16:27:07.485Z,13.80
2023-02-19T16:29:34.545Z,13.80
2023-02-19T16:32:04.382Z,13.80
2023-02-19T16:34:39.763Z,13.90
2023-02-19T16:37:42.302Z,13.80
2023-02-19T16:40:09.013Z,13.80
2023-02-19T16:43:24.563Z,13.80
2023-02-19T16:45:51.336Z,13.80
2023-02-19T16:48:20.967Z,13.80
2023-02-19T16:50:47.667Z,13.80
2023-02-19T16:53:20.631Z,13.70
2023-02-19T16:55:48.435Z,13.70
2023-02-19T16:58:15.219Z,13.80
2023-02-19T17:00:42.375Z,13.80
2023-02-19T17:03:17.287Z,13.80
2023-02-19T17:05:44.866Z,13.80
2023-02-19T17:08:26.406Z,13.80
2023-02-19T17:10:55.826Z,13.80
2023-02-19T17:13:22.807Z,13.80
2023-02-19T17:15:50.576Z,13.70
2023-02-19T17:18:18.463Z,13.70
2023-02-19T17:20:51.742Z,13.70
2023-02-19T17:23:18.510Z,13.70
2023-02-19T17:25:45.195Z,13.70
2023-02-19T17:30:40.190Z,13.70
2023-02-19T17:33:07.357Z,13.70
2023-02-19T17:35:34.370Z,13.60
2023-02-19T17:38:01.078Z,13.60
2023-02-19T17:40:33.723Z,13.60
2023-02-19T17:43:01.302Z,13.60
2023-02-19T17:45:28.372Z,13.60
2023-02-19T17:47:55.317Z,13.60
2023-02-19T17:50:27.690Z,13.60
2023-02-19T17:52:54.422Z,13.60
2023-02-19T17:55:21.200Z,13.60
2023-02-19T17:57:50.620Z,13.60
2023-02-19T18:00:22.937Z,13.60
2023-02-19T18:02:49.725Z,13.50
2023-02-19T18:05:16.899Z,13.50
2023-02-19T18:07:44.198Z,13.50
2023-02-19T18:10:11.298Z,13.50
2023-02-19T18:12:39.328Z,13.40
2023-02-19T18:15:08.039Z,13.40
2023-02-19T18:17:35.107Z,13.40
2023-02-19T18:20:01.869Z,13.40
2023-02-19T18:22:28.536Z,13.40
2023-02-19T18:24:55.458Z,13.30
2023-02-19T18:27:23.502Z,13.30
2023-02-19T18:29:52.114Z,13.30
2023-02-19T18:32:21.084Z,13.30
2023-02-19T18:34:52.615Z,13.20
2023-02-19T18:37:20.307Z,13.20
2023-02-19T18:39:47.238Z,13.20
2023-02-19T18:42:14.662Z,13.20
2023-02-19T18:44:41.652Z,13.20
2023-02-19T18:47:09.890Z,13.10
2023-02-19T18:49:36.631Z,13.10
2023-02-19T18:52:03.649Z,13.10
2023-02-19T18:54:31.546Z,13.10
2023-02-19T18:57:03.740Z,13.00
2023-02-19T18:59:31.159Z,13.00
2023-02-19T19:01:58.322Z,12.90
2023-02-19T19:04:24.976Z,12.90
2023-02-19T19:06:51.760Z,12.90
2023-02-19T19:09:18.790Z,12.90
2023-02-19T19:11:46.593Z,12.90
2023-02-19T19:14:14.333Z,12.90
2023-02-19T19:16:42.208Z,12.90
2023-02-19T19:19:09.110Z,12.90
2023-02-19T19:21:35.798Z,12.80
2023-02-19T19:24:02.489Z,12.80
2023-02-19T19:26:29.171Z,12.80
2023-02-19T19:28:55.858Z,12.80
2023-02-19T19:31:24.722Z,12.80
2023-02-19T19:33:51.903Z,12.80
2023-02-19T19:36:21.273Z,12.70
2023-02-19T19:38:48.662Z,12.70
2023-02-19T19:41:18.183Z,12.70
2023-02-19T19:43:44.944Z,12.80
2023-02-19T19:46:11.887Z,12.70
2023-02-19T19:48:41.617Z,12.80
2023-02-19T19:51:08.234Z,12.70
2023-02-19T19:53:35.192Z,12.70
2023-02-19T19:56:02.250Z,12.70
2023-02-19T19:58:29.217Z,12.70
2023-02-19T20:00:56.167Z,12.60
2023-02-19T20:03:22.990Z,12.70
2023-02-19T20:05:52.663Z,12.70
2023-02-19T20:08:19.705Z,12.70
2023-02-19T20:10:46.770Z,12.60
2023-02-19T20:13:24.301Z,12.70
2023-02-19T20:15:51.974Z,12.60
2023-02-19T20:18:19.141Z,12.60
2023-02-19T20:20:45.906Z,12.60
2023-02-19T20:23:12.629Z,12.60
2023-02-19T20:25:39.325Z,12.60
2023-02-19T20:28:06.089Z,12.60
2023-02-19T20:30:32.751Z,12.60
2023-02-19T20:32:59.657Z,12.60
2023-02-19T20:35:28.607Z,12.60
2023-02-19T20:37:55.766Z,12.60
2023-02-19T20:40:27.682Z,12.60
2023-02-19T20:42:54.471Z,12.60
2023-02-19T20:45:21.465Z,12.50
2023-02-19T20:47:48.149Z,12.50
2023-02-19T20:50:17.441Z,12.60
2023-02-19T20:52:44.758Z,12.50
2023-02-19T20:55:11.601Z,12.50
2023-02-19T20:57:38.255Z,12.50
2023-02-19T21:00:06.038Z,12.50
2023-02-19T21:02:32.827Z,12.50
2023-02-19T21:05:01.251Z,12.40
2023-02-19T21:07:27.937Z,12.50
2023-02-19T21:09:54.816Z,12.50
2023-02-19T21:12:22.555Z,12.50
2023-02-19T21:14:49.287Z,12.50
2023-02-19T21:17:16.021Z,12.50
2023-02-19T21:19:42.788Z,12.40
2023-02-19T21:22:09.434Z,12.40
2023-02-19T21:27:03.434Z,12.20
2023-02-19T21:29:30.251Z,12.10
2023-02-19T21:31:58.255Z,12.00
2023-02-19T21:34:28.246Z,11.90
2023-02-19T21:39:24.587Z,11.80
2023-02-19T21:41:51.465Z,11.70
2023-02-19T21:44:18.694Z,11.60
2023-02-19T21:46:45.467Z,11.50
2023-02-19T21:49:12.933Z,11.50
2023-02-19T21:51:41.713Z,11.50
2023-02-19T21:54:08.834Z,11.50
2023-02-19T21:56:36.710Z,11.50
2023-02-19T21:59:04.148Z,11.40
2023-02-19T22:04:07.231Z,11.40
2023-02-19T22:06:34.390Z,11.30
2023-02-19T22:09:01.490Z,11.30
2023-02-19T22:11:28.537Z,11.30
2023-02-19T22:13:56.328Z,11.30
2023-02-19T22:16:23.721Z,11.30
2023-02-19T22:18:52.352Z,11.30
2023-02-19T22:21:20.248Z,11.30
2023-02-19T22:23:47.899Z,11.30
2023-02-19T22:26:31.280Z,11.30
2023-02-19T22:28:59.493Z,11.30
2023-02-19T22:31:28.078Z,11.30
2023-02-19T22:33:56.064Z,11.30
2023-02-19T22:36:25.173Z,11.30
2023-02-19T22:38:52.851Z,11.30
2023-02-19T22:41:21.294Z,11.30
2023-02-19T22:43:50.036Z,11.20
2023-02-19T22:46:20.138Z,11.20
2023-02-19T22:48:46.940Z,11.20
2023-02-19T22:51:16.003Z,11.20
2023-02-19T22:53:56.843Z,11.20
2023-02-19T22:56:26.949Z,11.20
2023-02-19T22:58:55.035Z,11.30
2023-02-19T23:01:22.153Z,11.30
2023-02-19T23:03:53.275Z,11.20
2023-02-19T23:06:31.725Z,11.20
2023-02-19T23:09:10.333Z,11.20
2023-02-19T23:11:39.122Z,11.20
2023-02-19T23:14:06.896Z,11.20
2023-02-19T23:16:35.962Z,11.20
2023-02-19T23:19:07.002Z,11.10
2023-02-19T23:21:33.715Z,11.10
2023-02-19T23:24:00.625Z,11.10
2023-02-19T23:26:27.296Z,11.10
2023-02-19T23:28:55.244Z,11.00
2023-02-19T23:31:22.188Z,11.00
2023-02-19T23:33:49.006Z,11.00
2023-02-19T23:36:16.595Z,11.00
2023-02-19T23:38:46.792Z,11.00
2023-02-19T23:41:16.179Z,11.00
2023-02-19T23:43:42.928Z,11.00
2023-02-19T23:46:13.458Z,11.10
2023-02-19T23:48:40.459Z,11.10
2023-02-19T23:51:07.257Z,11.10
2023-02-19T23:53:33.927Z,11.10
2023-02-19T23:56:00.896Z,11.10
2023-02-19T23:58:27.622Z,11.10
